createdAt,value
2023-07-21T00:02:11.709Z,78.47
2023-07-21T00:04:37.844Z,79.03
2023-07-21T00:07:04.057Z,78.74
2023-07-21T00:09:30.200Z,78.69
2023-07-21T00:11:56.407Z,79.53
2023-07-21T00:14:22.568Z,78.89
2023-07-21T00:16:48.882Z,78.38
2023-07-21T00:19:15.012Z,79.11
2023-07-21T00:21:41.165Z,78.86
2023-07-21T00:24:07.363Z,78.72
2023-07-21T00:26:33.560Z,78.66
2023-07-21T00:28:59.696Z,79.10
2023-07-21T00:31:25.883Z,79.68
2023-07-21T00:33:52.074Z,80.23
2023-07-21T00:36:18.244Z,80.04
2023-07-21T00:38:44.406Z,80.08
2023-07-21T00:41:10.575Z,80.28
2023-07-21T00:43:36.725Z,80.73
2023-07-21T00:46:02.872Z,80.49
2023-07-21T00:48:29.028Z,80.63
2023-07-21T00:50:55.188Z,80.64
2023-07-21T00:53:21.340Z,80.73
2023-07-21T00:55:47.503Z,80.40
2023-07-21T00:58:13.661Z,80.85
2023-07-21T01:00:39.865Z,80.46
2023-07-21T01:03:06.115Z,80.28
2023-07-21T01:05:32.322Z,80.46
2023-07-21T01:07:58.474Z,80.84
2023-07-21T01:10:24.607Z,81.26
2023-07-21T01:12:50.753Z,81.23
2023-07-21T01:15:16.922Z,81.63
2023-07-21T01:17:43.096Z,80.70
2023-07-21T01:20:09.264Z,80.78
2023-07-21T01:22:35.415Z,80.84
2023-07-21T01:25:01.561Z,80.85
2023-07-21T01:27:27.703Z,81.06
2023-07-21T01:29:53.852Z,81.10
2023-07-21T01:32:20.008Z,81.78
2023-07-21T01:34:46.151Z,81.49
2023-07-21T01:37:12.318Z,81.00
2023-07-21T01:39:38.464Z,80.97
2023-07-21T01:42:04.599Z,81.51
2023-07-21T01:44:30.731Z,81.76
2023-07-21T01:46:56.936Z,81.86
2023-07-21T01:49:23.208Z,82.20
2023-07-21T01:51:49.351Z,82.26
2023-07-21T01:54:15.515Z,81.64
2023-07-21T01:56:41.654Z,81.69
2023-07-21T01:59:07.842Z,82.06
2023-07-21T02:01:34.039Z,81.63
2023-07-21T02:04:00.306Z,81.26
2023-07-21T02:06:26.671Z,82.05
2023-07-21T02:08:53.038Z,81.63
2023-07-21T02:11:19.182Z,81.14
2023-07-21T02:13:45.312Z,81.89
2023-07-21T02:16:11.467Z,81.28
2023-07-21T02:18:37.637Z,80.86
2023-07-21T02:21:03.862Z,80.92
2023-07-21T02:23:30.124Z,80.97
2023-07-21T02:25:56.274Z,80.70
2023-07-21T02:28:22.423Z,81.30
2023-07-21T02:30:48.597Z,80.94
2023-07-21T02:33:14.753Z,81.50
2023-07-21T02:35:40.891Z,81.03
2023-07-21T02:38:07.040Z,81.03
2023-07-21T02:40:33.187Z,80.85
2023-07-21T02:42:59.337Z,80.82
2023-07-21T02:45:25.502Z,81.21
2023-07-21T02:47:51.673Z,81.79
2023-07-21T02:50:17.858Z,81.09
2023-07-21T02:52:44.022Z,80.71
2023-07-21T02:55:10.232Z,80.98
2023-07-21T02:57:36.368Z,81.20
2023-07-21T03:00:02.513Z,80.92
2023-07-21T03:02:28.722Z,80.93
2023-07-21T03:04:54.937Z,81.45
2023-07-21T03:07:21.101Z,81.07
2023-07-21T03:09:47.268Z,80.84
2023-07-21T03:12:13.400Z,80.72
2023-07-21T03:14:39.540Z,80.08
2023-07-21T03:17:05.691Z,80.46
2023-07-21T03:19:31.892Z,80.05
2023-07-21T03:21:58.091Z,79.78
2023-07-21T03:24:24.287Z,80.20
2023-07-21T03:26:50.445Z,80.38
2023-07-21T03:29:16.592Z,80.37
2023-07-21T03:31:42.744Z,80.41
2023-07-21T03:34:08.946Z,81.13
2023-07-21T03:36:35.116Z,80.43
2023-07-21T03:39:01.261Z,81.06
2023-07-21T03:41:27.424Z,80.60
2023-07-21T03:43:53.572Z,80.45
2023-07-21T03:46:19.771Z,80.26
2023-07-21T03:48:45.985Z,80.47
2023-07-21T03:51:12.161Z,80.92
2023-07-21T03:53:38.293Z,80.69
2023-07-21T03:56:04.474Z,81.26
2023-07-21T03:58:30.601Z,81.20
2023-07-21T04:00:56.840Z,81.53
2023-07-21T04:03:23.145Z,81.24
2023-07-21T04:05:49.306Z,81.72
2023-07-21T04:08:15.442Z,81.19
2023-07-21T04:10:41.577Z,80.96
2023-07-21T04:13:07.770Z,81.71
2023-07-21T04:15:33.925Z,81.30
2023-07-21T04:18:00.162Z,81.09
2023-07-21T04:20:26.352Z,81.22
2023-07-21T04:22:52.489Z,81.52
2023-07-21T04:25:18.636Z,81.31
2023-07-21T04:27:44.778Z,81.58
2023-07-21T04:30:10.932Z,81.71
2023-07-21T04:32:37.084Z,81.38
2023-07-21T04:35:04.954Z,80.85
2023-07-21T04:37:31.360Z,80.82
2023-07-21T04:39:58.563Z,80.50
2023-07-21T04:42:24.722Z,80.75
2023-07-21T04:44:50.873Z,80.42
2023-07-21T04:47:17.105Z,80.42
2023-07-21T04:49:43.303Z,80.23
2023-07-21T04:52:09.452Z,80.26
2023-07-21T04:54:35.573Z,79.80
2023-07-21T04:57:01.730Z,80.47
2023-07-21T04:59:28.922Z,79.82
2023-07-21T05:01:55.224Z,79.53
2023-07-21T05:04:21.373Z,79.45
2023-07-21T05:06:47.518Z,79.18
2023-07-21T05:09:13.668Z,79.27
2023-07-21T05:11:39.832Z,79.25
2023-07-21T05:14:05.977Z,79.12
2023-07-21T05:16:32.128Z,78.77
2023-07-21T05:18:58.276Z,78.69
2023-07-21T05:21:24.421Z,79.00
2023-07-21T05:23:50.560Z,78.94
2023-07-21T05:26:16.702Z,78.63
2023-07-21T05:28:42.859Z,78.48
2023-07-21T05:31:09.020Z,78.25
2023-07-21T05:33:35.263Z,78.58
2023-07-21T05:36:01.398Z,78.27
2023-07-21T05:38:27.542Z,78.31
2023-07-21T05:40:53.674Z,78.47
2023-07-21T05:43:19.827Z,78.46
2023-07-21T05:45:45.956Z,78.32
2023-07-21T05:48:12.112Z,77.98
2023-07-21T05:50:38.415Z,78.12
2023-07-21T05:53:04.751Z,77.89
2023-07-21T05:55:30.902Z,77.30
2023-07-21T05:57:57.090Z,76.81
2023-07-21T06:00:23.237Z,76.57
2023-07-21T06:02:49.420Z,76.01
2023-07-21T06:05:15.696Z,75.89
2023-07-21T06:07:41.853Z,75.60
2023-07-21T06:10:07.985Z,75.03
2023-07-21T06:12:34.133Z,74.76
2023-07-21T06:15:00.274Z,74.35
2023-07-21T06:17:26.487Z,72.70
2023-07-21T06:19:52.686Z,72.18
2023-07-21T06:22:18.844Z,72.27
2023-07-21T06:24:45.052Z,73.16
2023-07-21T06:27:11.216Z,72.45
2023-07-21T06:29:37.379Z,72.25
2023-07-21T06:32:03.557Z,72.39
2023-07-21T06:34:29.738Z,72.39
2023-07-21T06:36:55.956Z,71.84
2023-07-21T06:39:22.111Z,71.17
2023-07-21T06:41:48.239Z,70.89
2023-07-21T06:44:14.380Z,69.94
2023-07-21T06:46:40.587Z,69.67
2023-07-21T06:49:06.790Z,69.98
2023-07-21T06:51:32.931Z,69.67
2023-07-21T06:53:59.131Z,69.42
2023-07-21T06:56:25.299Z,68.05
2023-07-21T06:58:51.488Z,68.04
2023-07-21T07:01:17.670Z,67.58
2023-07-21T07:03:46.376Z,66.84
2023-07-21T07:06:14.326Z,67.45
2023-07-21T07:08:40.474Z,66.56
2023-07-21T07:11:06.617Z,66.39
2023-07-21T07:13:32.815Z,64.48
2023-07-21T07:15:59.009Z,64.87
2023-07-21T07:18:25.160Z,65.19
2023-07-21T07:20:51.321Z,64.94
2023-07-21T07:23:17.563Z,64.57
2023-07-21T07:25:43.745Z,64.78
2023-07-21T07:28:09.927Z,63.60
2023-07-21T07:30:36.105Z,62.62
2023-07-21T07:33:02.269Z,61.39
2023-07-21T07:35:28.505Z,61.66
2023-07-21T07:37:54.655Z,61.24
2023-07-21T07:40:20.822Z,60.32
2023-07-21T07:42:47.047Z,60.26
2023-07-21T07:45:13.199Z,59.47
2023-07-21T07:47:39.337Z,58.58
2023-07-21T07:50:05.502Z,58.01
2023-07-21T07:52:31.812Z,59.20
2023-07-21T07:54:58.039Z,59.59
2023-07-21T07:57:24.171Z,58.68
2023-07-21T07:59:50.323Z,58.39
2023-07-21T08:02:16.462Z,57.81
2023-07-21T08:04:42.653Z,55.62
2023-07-21T08:07:08.819Z,56.99
2023-07-21T08:09:34.970Z,56.26
2023-07-21T08:12:01.228Z,56.39
2023-07-21T08:14:27.422Z,55.68
2023-07-21T08:16:53.702Z,54.84
2023-07-21T08:19:19.991Z,54.89
2023-07-21T08:21:46.134Z,55.05
2023-07-21T08:24:12.314Z,54.58
2023-07-21T08:26:38.504Z,53.45
2023-07-21T08:29:04.647Z,53.47
2023-07-21T08:31:30.883Z,53.38
2023-07-21T08:33:57.072Z,51.95
2023-07-21T08:36:23.309Z,51.69
2023-07-21T08:38:49.439Z,51.55
2023-07-21T08:41:15.579Z,51.24
2023-07-21T08:43:41.721Z,49.24
2023-07-21T08:46:07.903Z,50.40
2023-07-21T08:48:34.070Z,50.82
2023-07-21T08:51:00.415Z,49.63
2023-07-21T08:53:26.548Z,50.66
2023-07-21T08:55:52.683Z,50.53
2023-07-21T08:58:18.834Z,49.12
2023-07-21T09:00:44.976Z,49.10
2023-07-21T09:03:11.310Z,49.64
2023-07-21T09:05:37.613Z,49.45
2023-07-21T09:08:03.803Z,48.93
2023-07-21T09:10:29.992Z,48.76
2023-07-21T09:12:56.300Z,48.69
2023-07-21T09:15:22.571Z,48.53
2023-07-21T09:17:48.738Z,49.54
2023-07-21T09:20:15.067Z,48.74
2023-07-21T09:22:41.240Z,48.60
2023-07-21T09:25:07.407Z,48.56
2023-07-21T09:27:33.574Z,48.01
2023-07-21T09:29:59.709Z,46.36
2023-07-21T09:32:25.902Z,45.28
2023-07-21T09:34:52.063Z,44.24
2023-07-21T09:37:18.225Z,44.48
2023-07-21T09:39:44.356Z,45.24
2023-07-21T09:42:10.502Z,45.47
2023-07-21T09:44:36.628Z,45.52
2023-07-21T09:47:02.845Z,45.06
2023-07-21T09:49:29.031Z,44.45
2023-07-21T09:51:55.183Z,43.41
2023-07-21T09:54:21.320Z,42.97
2023-07-21T09:56:47.475Z,43.53
2023-07-21T09:59:13.632Z,43.88
2023-07-21T10:01:39.983Z,42.86
2023-07-21T10:04:06.192Z,41.70
2023-07-21T10:06:32.379Z,41.84
2023-07-21T10:08:58.544Z,40.92
2023-07-21T10:11:24.846Z,42.21
2023-07-21T10:13:51.179Z,41.50
2023-07-21T10:16:17.353Z,41.80
2023-07-21T10:18:43.530Z,41.62
2023-07-21T10:21:09.687Z,42.14
2023-07-21T10:23:35.840Z,43.41
2023-07-21T10:26:02.001Z,43.59
2023-07-21T10:28:28.154Z,43.12
2023-07-21T10:30:54.322Z,42.30
2023-07-21T10:33:20.506Z,42.06
2023-07-21T10:35:46.656Z,41.33
2023-07-21T10:38:12.794Z,41.45
2023-07-21T10:40:38.931Z,40.38
2023-07-21T10:43:05.108Z,39.81
2023-07-21T10:45:31.238Z,38.52
2023-07-21T10:47:57.499Z,37.88
2023-07-21T10:50:23.737Z,38.65
2023-07-21T10:52:49.883Z,39.29
2023-07-21T10:55:16.022Z,39.53
2023-07-21T10:57:42.168Z,39.09
2023-07-21T11:00:08.316Z,37.66
2023-07-21T11:02:34.514Z,38.17
2023-07-21T11:05:00.857Z,38.35
2023-07-21T11:07:27.011Z,38.53
2023-07-21T11:09:53.177Z,37.98
2023-07-21T11:12:19.465Z,38.90
2023-07-21T11:14:45.744Z,38.92
2023-07-21T11:17:11.974Z,39.57
2023-07-21T11:19:38.187Z,40.11
2023-07-21T11:22:04.357Z,39.42
2023-07-21T11:24:30.867Z,40.25
2023-07-21T11:26:57.399Z,39.13
2023-07-21T11:29:23.554Z,39.45
2023-07-21T11:31:49.704Z,39.62
2023-07-21T11:34:15.903Z,37.83
2023-07-21T11:36:42.037Z,37.27
2023-07-21T11:39:08.181Z,36.95
2023-07-21T11:41:34.317Z,35.78
2023-07-21T11:44:00.463Z,34.33
2023-07-21T11:46:26.881Z,33.79
2023-07-21T11:48:53.139Z,32.99
2023-07-21T11:51:19.318Z,33.10
2023-07-21T11:53:45.471Z,32.05
2023-07-21T11:56:11.638Z,32.15
2023-07-21T11:58:37.785Z,32.25
2023-07-21T12:01:03.930Z,31.92
2023-07-21T12:03:30.303Z,31.94
2023-07-21T12:05:56.651Z,30.72
2023-07-21T12:08:22.778Z,30.91
2023-07-21T12:10:48.935Z,32.14
2023-07-21T12:13:15.060Z,31.90
2023-07-21T12:15:41.342Z,32.46
2023-07-21T12:18:07.578Z,34.46
2023-07-21T12:20:33.757Z,34.00
2023-07-21T12:22:59.893Z,34.00
2023-07-21T12:25:26.035Z,34.89
2023-07-21T12:27:52.199Z,34.52
2023-07-21T12:30:18.442Z,35.22
2023-07-21T12:32:44.692Z,35.24
2023-07-21T12:35:11.163Z,35.12
2023-07-21T12:37:37.338Z,34.07
2023-07-21T12:40:03.509Z,33.25
2023-07-21T12:42:29.668Z,31.99
2023-07-21T12:44:55.822Z,30.53
2023-07-21T12:47:21.950Z,30.20
2023-07-21T12:49:48.105Z,30.75
2023-07-21T12:52:14.261Z,31.04
2023-07-21T12:54:40.422Z,32.47
2023-07-21T12:57:06.589Z,33.51
2023-07-21T12:59:32.743Z,34.55
2023-07-21T13:01:59.058Z,36.62
2023-07-21T13:04:25.394Z,40.40
2023-07-21T13:06:51.804Z,42.87
2023-07-21T13:09:17.942Z,46.19
2023-07-21T13:11:44.114Z,48.99
2023-07-21T13:14:10.253Z,55.94
2023-07-21T13:16:36.447Z,59.50
2023-07-21T13:19:02.808Z,59.53
2023-07-21T13:21:29.006Z,62.71
2023-07-21T13:23:55.136Z,62.13
2023-07-21T13:26:21.319Z,65.87
2023-07-21T13:28:47.474Z,69.25
2023-07-21T13:31:13.640Z,71.17
2023-07-21T13:33:39.809Z,71.74
2023-07-21T13:36:05.987Z,70.13
2023-07-21T13:38:32.122Z,67.73
2023-07-21T13:40:58.262Z,64.69
2023-07-21T13:43:24.423Z,58.41
2023-07-21T13:45:50.614Z,55.52
2023-07-21T13:48:16.903Z,52.24
2023-07-21T13:50:43.111Z,49.16
2023-07-21T13:53:09.253Z,48.64
2023-07-21T13:55:35.382Z,47.03
2023-07-21T13:58:01.534Z,46.87
2023-07-21T14:00:27.665Z,49.47
2023-07-21T14:02:54.032Z,51.00
2023-07-21T14:05:20.300Z,50.28
2023-07-21T14:07:46.439Z,51.26
2023-07-21T14:10:12.590Z,53.16
2023-07-21T14:12:38.746Z,54.29
2023-07-21T14:15:04.886Z,53.81
2023-07-21T14:17:31.091Z,55.40
2023-07-21T14:19:57.277Z,56.30
2023-07-21T14:22:23.421Z,57.30
2023-07-21T14:24:49.758Z,56.84
2023-07-21T14:27:15.993Z,59.02
2023-07-21T14:29:42.135Z,59.05
2023-07-21T14:32:08.278Z,56.90
2023-07-21T14:34:34.414Z,56.41
2023-07-21T14:37:00.586Z,57.23
2023-07-21T14:39:26.746Z,58.98
2023-07-21T14:41:52.894Z,61.80
2023-07-21T14:44:19.045Z,64.41
2023-07-21T14:46:45.264Z,66.30
2023-07-21T14:49:11.483Z,68.31
2023-07-21T14:51:37.776Z,68.62
2023-07-21T14:54:03.929Z,69.86
2023-07-21T14:56:30.221Z,70.59
2023-07-21T14:58:56.442Z,70.88
2023-07-21T15:01:22.723Z,71.98
2023-07-21T15:03:49.032Z,71.98
2023-07-21T15:06:15.228Z,71.54
2023-07-21T15:08:41.377Z,71.48
2023-07-21T15:11:07.515Z,71.35
2023-07-21T15:13:33.654Z,70.61
2023-07-21T15:15:59.836Z,69.70
2023-07-21T15:18:26.081Z,69.62
2023-07-21T15:20:52.265Z,70.70
2023-07-21T15:23:18.511Z,69.22
2023-07-21T15:25:44.715Z,67.32
2023-07-21T15:28:10.878Z,66.74
2023-07-21T15:30:37.040Z,67.04
2023-07-21T15:33:03.288Z,66.60
2023-07-21T15:35:29.522Z,65.76
2023-07-21T15:37:55.689Z,65.90
2023-07-21T15:40:21.843Z,65.30
2023-07-21T15:42:48.285Z,65.21
2023-07-21T15:45:14.482Z,64.17
2023-07-21T15:47:45.152Z,62.94
2023-07-21T15:50:11.362Z,62.51
2023-07-21T15:52:37.527Z,61.71
2023-07-21T15:55:03.862Z,60.63
2023-07-21T15:57:30.008Z,60.21
2023-07-21T15:59:56.204Z,59.82
2023-07-21T16:02:22.489Z,59.22
2023-07-21T16:04:48.757Z,59.23
2023-07-21T16:07:14.946Z,57.14
2023-07-21T16:09:41.106Z,57.99
2023-07-21T16:12:07.460Z,56.81
2023-07-21T16:14:33.619Z,57.74
2023-07-21T16:16:59.776Z,58.14
2023-07-21T16:19:25.959Z,57.91
2023-07-21T16:21:52.130Z,57.45
2023-07-21T16:24:18.327Z,57.23
2023-07-21T16:26:44.472Z,56.05
2023-07-21T16:29:10.614Z,56.46
2023-07-21T16:31:36.813Z,55.59
2023-07-21T16:34:02.984Z,55.94
2023-07-21T16:36:29.143Z,56.26
2023-07-21T16:38:55.283Z,57.00
2023-07-21T16:41:21.420Z,56.95
2023-07-21T16:43:47.567Z,57.32
2023-07-21T16:46:13.736Z,57.31
2023-07-21T16:48:39.923Z,56.11
2023-07-21T16:51:06.073Z,56.68
2023-07-21T16:53:32.340Z,57.06
2023-07-21T16:55:58.480Z,57.56
2023-07-21T16:58:25.714Z,57.63
2023-07-21T17:00:53.697Z,57.94
2023-07-21T17:03:19.971Z,58.02
2023-07-21T17:05:46.224Z,58.18
2023-07-21T17:08:12.352Z,58.36
2023-07-21T17:10:38.515Z,58.52
2023-07-21T17:13:04.690Z,58.55
2023-07-21T17:15:30.871Z,58.72
2023-07-21T17:17:57.029Z,59.14
2023-07-21T17:20:23.268Z,60.10
2023-07-21T17:22:49.518Z,59.43
2023-07-21T17:25:15.740Z,59.11
2023-07-21T17:27:41.931Z,59.38
2023-07-21T17:30:08.087Z,59.58
2023-07-21T17:32:34.344Z,59.21
2023-07-21T17:35:00.565Z,59.58
2023-07-21T17:37:26.817Z,59.84
2023-07-21T17:39:52.981Z,58.90
2023-07-21T17:42:19.135Z,58.37
2023-07-21T17:44:45.307Z,58.14
2023-07-21T17:47:11.509Z,57.74
2023-07-21T17:49:37.631Z,56.98
2023-07-21T17:52:03.867Z,56.35
2023-07-21T17:54:30.095Z,56.08
2023-07-21T17:56:56.792Z,55.75
2023-07-21T17:59:22.939Z,55.87
2023-07-21T18:01:49.138Z,55.59
2023-07-21T18:04:15.381Z,55.52
2023-07-21T18:06:41.571Z,56.26
2023-07-21T18:09:07.731Z,55.67
2023-07-21T18:11:33.878Z,56.23
2023-07-21T18:14:00.006Z,56.83
2023-07-21T18:16:26.291Z,56.65
2023-07-21T18:18:52.537Z,57.23
2023-07-21T18:21:18.684Z,57.29
2023-07-21T18:23:44.859Z,57.38
2023-07-21T18:26:11.012Z,57.60
2023-07-21T18:28:37.161Z,57.51
2023-07-21T18:31:03.325Z,57.73
2023-07-21T18:33:29.537Z,57.47
2023-07-21T18:35:55.680Z,57.59
2023-07-21T18:38:21.810Z,57.08
2023-07-21T18:40:47.930Z,57.15
2023-07-21T18:43:14.076Z,57.04
2023-07-21T18:45:40.208Z,56.67
2023-07-21T18:48:06.428Z,57.18
2023-07-21T18:50:32.578Z,57.02
2023-07-21T18:52:58.729Z,57.12
2023-07-21T18:55:24.863Z,57.29
2023-07-21T18:57:51.023Z,57.92
2023-07-21T19:00:17.263Z,57.84
2023-07-21T19:02:43.453Z,58.35
2023-07-21T19:05:09.799Z,58.82
2023-07-21T19:07:35.980Z,58.81
2023-07-21T19:10:02.122Z,58.94
2023-07-21T19:12:28.253Z,59.06
2023-07-21T19:14:54.414Z,59.68
2023-07-21T19:17:20.643Z,59.51
2023-07-21T19:19:46.937Z,59.53
2023-07-21T19:22:13.077Z,60.04
2023-07-21T19:24:39.411Z,60.34
2023-07-21T19:27:05.596Z,61.59
2023-07-21T19:29:31.756Z,62.58
2023-07-21T19:31:57.888Z,63.09
2023-07-21T19:34:24.021Z,64.62
2023-07-21T19:36:50.159Z,66.87
2023-07-21T19:39:16.314Z,68.02
2023-07-21T19:41:42.463Z,69.85
2023-07-21T19:44:08.623Z,70.69
2023-07-21T19:46:34.809Z,71.52
2023-07-21T19:49:01.005Z,72.70
2023-07-21T19:51:27.353Z,73.72
2023-07-21T19:53:53.712Z,74.99
2023-07-21T19:56:19.867Z,75.47
2023-07-21T19:58:46.211Z,75.95
2023-07-21T20:01:12.419Z,76.15
2023-07-21T20:03:41.246Z,76.80
2023-07-21T20:06:08.151Z,76.85
2023-07-21T20:08:34.363Z,77.90
2023-07-21T20:11:00.506Z,78.04
2023-07-21T20:13:26.645Z,78.58
2023-07-21T20:15:52.792Z,78.39
2023-07-21T20:18:18.938Z,78.84
2023-07-21T20:20:45.075Z,79.74
2023-07-21T20:23:11.220Z,80.27
2023-07-21T20:25:37.378Z,79.78
2023-07-21T20:28:03.564Z,80.30
2023-07-21T20:30:29.707Z,80.72
2023-07-21T20:32:55.905Z,80.86
2023-07-21T20:35:22.061Z,81.18
2023-07-21T20:37:48.196Z,81.92
2023-07-21T20:40:14.362Z,81.87
2023-07-21T20:42:40.491Z,81.92
2023-07-21T20:45:06.656Z,82.69
2023-07-21T20:47:32.815Z,82.61
2023-07-21T20:49:58.962Z,82.45
2023-07-21T20:52:25.090Z,83.01
2023-07-21T20:54:51.430Z,83.10
2023-07-21T20:57:17.558Z,82.85
2023-07-21T20:59:46.636Z,83.20
2023-07-21T21:02:13.248Z,83.36
2023-07-21T21:04:39.394Z,84.33
2023-07-21T21:07:05.531Z,83.81
2023-07-21T21:09:31.688Z,83.96
2023-07-21T21:11:57.850Z,84.01
2023-07-21T21:14:24.027Z,83.43
2023-07-21T21:16:50.275Z,82.99
2023-07-21T21:19:16.514Z,83.63
2023-07-21T21:21:42.668Z,83.34
2023-07-21T21:24:08.868Z,83.73
2023-07-21T21:26:35.060Z,83.35
2023-07-21T21:29:01.204Z,83.73
2023-07-21T21:31:27.398Z,83.67
2023-07-21T21:33:53.585Z,84.21
2023-07-21T21:36:19.717Z,83.50
2023-07-21T21:38:45.876Z,83.22
2023-07-21T21:41:12.106Z,83.72
2023-07-21T21:43:38.301Z,83.55
2023-07-21T21:46:04.570Z,84.39
2023-07-21T21:48:30.728Z,84.58
2023-07-21T21:50:56.871Z,84.20
2023-07-21T21:53:23.041Z,84.80
2023-07-21T21:55:49.182Z,84.86
2023-07-21T21:58:15.318Z,85.04
2023-07-21T22:00:41.740Z,84.24
2023-07-21T22:03:08.212Z,84.25
2023-07-21T22:05:34.456Z,84.12
2023-07-21T22:08:00.596Z,83.49
2023-07-21T22:10:26.736Z,83.24
2023-07-21T22:12:52.861Z,83.59
2023-07-21T22:15:19.001Z,83.12
2023-07-21T22:17:45.207Z,83.03
2023-07-21T22:20:12.215Z,83.67
2023-07-21T22:22:38.553Z,83.62
2023-07-21T22:25:04.857Z,84.06
2023-07-21T22:27:31.040Z,84.20
2023-07-21T22:29:57.234Z,84.57
2023-07-21T22:32:23.417Z,84.46
2023-07-21T22:34:49.547Z,84.57
2023-07-21T22:37:15.706Z,84.22
2023-07-21T22:39:41.841Z,84.99
2023-07-21T22:42:07.986Z,83.99
2023-07-21T22:44:34.121Z,84.39
2023-07-21T22:47:00.263Z,83.61
2023-07-21T22:49:26.399Z,83.56
2023-07-21T22:51:52.557Z,84.54
2023-07-21T22:54:18.686Z,84.17
2023-07-21T22:56:44.828Z,83.86
2023-07-21T22:59:10.961Z,84.43
2023-07-21T23:01:37.165Z,84.60
2023-07-21T23:04:03.321Z,85.33
2023-07-21T23:06:29.755Z,85.04
2023-07-21T23:08:56.024Z,85.27
2023-07-21T23:11:22.197Z,85.52
2023-07-21T23:13:48.337Z,85.34
2023-07-21T23:16:14.546Z,86.20
2023-07-21T23:18:40.738Z,85.49
2023-07-21T23:21:06.880Z,85.68
2023-07-21T23:23:33.024Z,85.62
2023-07-21T23:25:59.215Z,85.44
2023-07-21T23:28:25.366Z,85.29
2023-07-21T23:30:51.503Z,85.14
2023-07-21T23:33:17.672Z,85.29
2023-07-21T23:35:43.814Z,84.39
2023-07-21T23:38:09.968Z,85.02
2023-07-21T23:40:36.093Z,84.38
2023-07-21T23:43:02.233Z,84.31
2023-07-21T23:45:28.364Z,84.29
2023-07-21T23:47:54.605Z,84.73
2023-07-21T23:50:20.749Z,84.59
2023-07-21T23:52:46.891Z,84.73
2023-07-21T23:55:13.038Z,84.80
2023-07-21T23:57:39.239Z,84.94
